sensor_id;sensor_type;location;lat;lon;timestamp;pressure;altitude;pressure_sealevel;temperature;humidity
13013;BME280;22580;57.670;12.006;2023-03-15T00:01:00;99448.66;;;11.92;41.26
13013;BME280;22580;57.670;12.006;2023-03-15T00:03:29;99447.31;;;12.06;41.13
13013;BME280;22580;57.670;12.006;2023-03-15T00:05:55;99393.41;;;11.64;40.74
13013;BME280;22580;57.670;12.006;2023-03-15T00:08:24;99450.94;;;12.32;40.83
13013;BME280;22580;57.670;12.006;2023-03-15T00:10:52;99458.66;;;12.53;40.54
13013;BME280;22580;57.670;12.006;2023-03-15T00:13:19;99430.69;;;12.20;41.25
13013;BME280;22580;57.670;12.006;2023-03-15T00:15:48;99457.91;;;12.43;40.50
13013;BME280;22580;57.670;12.006;2023-03-15T00:18:17;99463.44;;;12.14;41.27
13013;BME280;22580;57.670;12.006;2023-03-15T00:20:48;99472.50;;;12.31;40.73
13013;BME280;22580;57.670;12.006;2023-03-15T00:23:15;99380.41;;;11.69;41.26
13013;BME280;22580;57.670;12.006;2023-03-15T00:25:43;99358.25;;;11.76;40.27
13013;BME280;22580;57.670;12.006;2023-03-15T00:28:12;99475.28;;;12.39;39.55
13013;BME280;22580;57.670;12.006;2023-03-15T00:30:39;99359.69;;;11.98;39.11
13013;BME280;22580;57.670;12.006;2023-03-15T00:33:07;99474.59;;;12.55;39.03
13013;BME280;22580;57.670;12.006;2023-03-15T00:35:38;99472.84;;;12.63;38.91
13013;BME280;22580;57.670;12.006;2023-03-15T00:38:06;99453.09;;;11.74;39.93
13013;BME280;22580;57.670;12.006;2023-03-15T00:40:33;99495.94;;;12.29;39.35
13013;BME280;22580;57.670;12.006;2023-03-15T00:43:01;99425.31;;;11.85;39.26
13013;BME280;22580;57.670;12.006;2023-03-15T00:45:29;99496.09;;;12.27;39.60
13013;BME280;22580;57.670;12.006;2023-03-15T00:47:57;99469.63;;;11.97;39.24
13013;BME280;22580;57.670;12.006;2023-03-15T00:50:24;99383.38;;;11.38;39.13
13013;BME280;22580;57.670;12.006;2023-03-15T00:52:51;99510.69;;;11.88;39.35
13013;BME280;22580;57.670;12.006;2023-03-15T00:55:18;99507.03;;;12.34;38.54
13013;BME280;22580;57.670;12.006;2023-03-15T00:57:46;99492.84;;;11.59;38.88
13013;BME280;22580;57.670;12.006;2023-03-15T01:00:15;99516.03;;;11.31;39.86
13013;BME280;22580;57.670;12.006;2023-03-15T01:02:46;99520.44;;;11.79;39.00
13013;BME280;22580;57.670;12.006;2023-03-15T01:05:13;99527.91;;;12.12;38.17
13013;BME280;22580;57.670;12.006;2023-03-15T01:07:41;99493.44;;;11.53;39.12
13013;BME280;22580;57.670;12.006;2023-03-15T01:10:10;99524.81;;;11.70;38.71
13013;BME280;22580;57.670;12.006;2023-03-15T01:12:38;99537.50;;;11.59;38.94
13013;BME280;22580;57.670;12.006;2023-03-15T01:15:07;99531.41;;;11.76;39.05
13013;BME280;22580;57.670;12.006;2023-03-15T01:17:36;99534.81;;;11.78;38.97
13013;BME280;22580;57.670;12.006;2023-03-15T01:20:06;99538.28;;;12.15;39.05
13013;BME280;22580;57.670;12.006;2023-03-15T01:22:33;99534.31;;;12.02;38.92
13013;BME280;22580;57.670;12.006;2023-03-15T01:25:00;99426.97;;;11.48;39.18
13013;BME280;22580;57.670;12.006;2023-03-15T01:27:27;99542.41;;;11.82;39.85
13013;BME280;22580;57.670;12.006;2023-03-15T01:29:54;99487.91;;;11.64;40.02
13013;BME280;22580;57.670;12.006;2023-03-15T01:32:22;99540.88;;;11.70;40.40
13013;BME280;22580;57.670;12.006;2023-03-15T01:34:49;99552.16;;;12.11;39.89
13013;BME280;22580;57.670;12.006;2023-03-15T01:37:17;99557.31;;;12.22;39.63
13013;BME280;22580;57.670;12.006;2023-03-15T01:39:44;99555.13;;;12.35;39.32
13013;BME280;22580;57.670;12.006;2023-03-15T01:42:11;99540.44;;;12.39;39.25
13013;BME280;22580;57.670;12.006;2023-03-15T01:44:49;99559.22;;;12.57;39.37
13013;BME280;22580;57.670;12.006;2023-03-15T01:47:17;99537.88;;;12.65;39.00
13013;BME280;22580;57.670;12.006;2023-03-15T01:49:46;99563.75;;;12.57;39.24
13013;BME280;22580;57.670;12.006;2023-03-15T01:52:19;99536.13;;;12.29;39.24
13013;BME280;22580;57.670;12.006;2023-03-15T01:54:51;99568.03;;;11.75;40.34
13013;BME280;22580;57.670;12.006;2023-03-15T01:57:23;99473.06;;;11.33;40.28
13013;BME280;22580;57.670;12.006;2023-03-15T01:59:54;99574.38;;;12.48;39.77
13013;BME280;22580;57.670;12.006;2023-03-15T02:02:24;99575.66;;;12.44;39.41
13013;BME280;22580;57.670;12.006;2023-03-15T02:04:55;99564.28;;;11.49;40.09
13013;BME280;22580;57.670;12.006;2023-03-15T02:07:25;99583.38;;;11.93;39.86
13013;BME280;22580;57.670;12.006;2023-03-15T02:09:59;99588.13;;;12.08;39.37
13013;BME280;22580;57.670;12.006;2023-03-15T02:12:30;99549.13;;;11.96;39.25
13013;BME280;22580;57.670;12.006;2023-03-15T02:14:59;99591.53;;;12.28;39.13
13013;BME280;22580;57.670;12.006;2023-03-15T02:17:32;99552.56;;;11.69;39.48
13013;BME280;22580;57.670;12.006;2023-03-15T02:20:09;99594.63;;;12.33;38.71
13013;BME280;22580;57.670;12.006;2023-03-15T02:22:46;99588.31;;;12.52;39.24
13013;BME280;22580;57.670;12.006;2023-03-15T02:25:21;99595.16;;;12.64;38.77
13013;BME280;22580;57.670;12.006;2023-03-15T02:27:54;99571.25;;;11.98;39.05
13013;BME280;22580;57.670;12.006;2023-03-15T02:30:22;99598.03;;;12.26;39.25
13013;BME280;22580;57.670;12.006;2023-03-15T02:32:49;99600.09;;;12.41;39.06
13013;BME280;22580;57.670;12.006;2023-03-15T02:35:22;99575.34;;;11.93;39.33
13013;BME280;22580;57.670;12.006;2023-03-15T02:37:49;99546.81;;;12.11;38.42
13013;BME280;22580;57.670;12.006;2023-03-15T02:40:18;99573.69;;;12.46;38.31
13013;BME280;22580;57.670;12.006;2023-03-15T02:42:47;99598.19;;;12.52;38.40
13013;BME280;22580;57.670;12.006;2023-03-15T02:45:19;99555.50;;;11.76;39.40
13013;BME280;22580;57.670;12.006;2023-03-15T02:47:47;99611.88;;;12.21;39.54
13013;BME280;22580;57.670;12.006;2023-03-15T02:50:15;99616.13;;;12.51;39.17
13013;BME280;22580;57.670;12.006;2023-03-15T02:52:42;99561.97;;;12.20;38.89
13013;BME280;22580;57.670;12.006;2023-03-15T02:55:09;99551.00;;;11.76;39.60
13013;BME280;22580;57.670;12.006;2023-03-15T02:57:36;99573.22;;;12.24;39.40
13013;BME280;22580;57.670;12.006;2023-03-15T03:00:05;99626.19;;;12.39;39.76
13013;BME280;22580;57.670;12.006;2023-03-15T03:02:41;99617.81;;;11.78;40.69
13013;BME280;22580;57.670;12.006;2023-03-15T03:05:09;99635.97;;;11.84;40.86
13013;BME280;22580;57.670;12.006;2023-03-15T03:07:36;99579.78;;;11.45;41.16
13013;BME280;22580;57.670;12.006;2023-03-15T03:10:06;99625.47;;;12.10;40.69
13013;BME280;22580;57.670;12.006;2023-03-15T03:12:33;99643.31;;;11.82;41.07
13013;BME280;22580;57.670;12.006;2023-03-15T03:15:00;99571.75;;;11.45;40.58
13013;BME280;22580;57.670;12.006;2023-03-15T03:17:29;99647.06;;;12.08;41.01
13013;BME280;22580;57.670;12.006;2023-03-15T03:19:57;99648.97;;;12.16;41.23
13013;BME280;22580;57.670;12.006;2023-03-15T03:22:25;99654.94;;;12.47;40.26
13013;BME280;22580;57.670;12.006;2023-03-15T03:24:52;99560.16;;;11.84;40.66
13013;BME280;22580;57.670;12.006;2023-03-15T03:27:19;99662.31;;;11.89;41.24
13013;BME280;22580;57.670;12.006;2023-03-15T03:29:46;99666.97;;;11.77;42.01
13013;BME280;22580;57.670;12.006;2023-03-15T03:32:13;99591.47;;;11.44;41.95
13013;BME280;22580;57.670;12.006;2023-03-15T03:34:40;99633.16;;;11.66;42.21
13013;BME280;22580;57.670;12.006;2023-03-15T03:37:15;99674.84;;;11.98;42.50
13013;BME280;22580;57.670;12.006;2023-03-15T03:39:43;99680.88;;;12.09;41.58
13013;BME280;22580;57.670;12.006;2023-03-15T03:42:10;99654.72;;;11.84;42.19
13013;BME280;22580;57.670;12.006;2023-03-15T03:44:37;99596.13;;;11.52;41.86
13013;BME280;22580;57.670;12.006;2023-03-15T03:47:04;99691.94;;;12.34;41.15
13013;BME280;22580;57.670;12.006;2023-03-15T03:49:31;99695.56;;;12.42;40.99
13013;BME280;22580;57.670;12.006;2023-03-15T03:51:58;99703.31;;;11.99;41.50
13013;BME280;22580;57.670;12.006;2023-03-15T03:54:27;99707.50;;;12.58;40.61
13013;BME280;22580;57.670;12.006;2023-03-15T03:56:54;99710.19;;;12.58;40.33
13013;BME280;22580;57.670;12.006;2023-03-15T03:59:21;99713.25;;;13.00;39.60
13013;BME280;22580;57.670;12.006;2023-03-15T04:01:48;99712.56;;;12.98;39.57
13013;BME280;22580;57.670;12.006;2023-03-15T04:04:15;99682.59;;;11.91;40.94
13013;BME280;22580;57.670;12.006;2023-03-15T04:06:42;99712.81;;;12.30;40.76
13013;BME280;22580;57.670;12.006;2023-03-15T04:09:10;99699.03;;;12.62;40.63
13013;BME280;22580;57.670;12.006;2023-03-15T04:11:40;99720.09;;;12.01;41.39
13013;BME280;22580;57.670;12.006;2023-03-15T04:14:08;99733.31;;;11.73;42.14
13013;BME280;22580;57.670;12.006;2023-03-15T04:16:35;99693.16;;;12.12;41.12
13013;BME280;22580;57.670;12.006;2023-03-15T04:19:02;99716.03;;;12.34;40.81
13013;BME280;22580;57.670;12.006;2023-03-15T04:21:29;99738.84;;;12.47;40.61
13013;BME280;22580;57.670;12.006;2023-03-15T04:23:57;99736.09;;;12.20;40.09
13013;BME280;22580;57.670;12.006;2023-03-15T04:26:24;99712.91;;;11.92;41.06
13013;BME280;22580;57.670;12.006;2023-03-15T04:28:54;99747.34;;;12.33;40.25
13013;BME280;22580;57.670;12.006;2023-03-15T04:31:22;99726.41;;;11.71;41.05
13013;BME280;22580;57.670;12.006;2023-03-15T04:33:52;99642.31;;;11.35;41.03
13013;BME280;22580;57.670;12.006;2023-03-15T04:36:19;99733.47;;;12.01;41.09
13013;BME280;22580;57.670;12.006;2023-03-15T04:38:47;99734.03;;;12.04;40.92
13013;BME280;22580;57.670;12.006;2023-03-15T04:41:14;99760.81;;;11.95;41.16
13013;BME280;22580;57.670;12.006;2023-03-15T04:43:42;99734.34;;;11.92;40.97
13013;BME280;22580;57.670;12.006;2023-03-15T04:46:10;99750.31;;;12.30;40.83
13013;BME280;22580;57.670;12.006;2023-03-15T04:48:37;99735.56;;;11.68;40.97
13013;BME280;22580;57.670;12.006;2023-03-15T04:51:06;99762.38;;;12.07;40.93
13013;BME280;22580;57.670;12.006;2023-03-15T04:53:32;99766.88;;;12.06;41.16
13013;BME280;22580;57.670;12.006;2023-03-15T04:55:59;99774.19;;;12.14;41.30
13013;BME280;22580;57.670;12.006;2023-03-15T04:58:27;99741.75;;;12.17;40.79
13013;BME280;22580;57.670;12.006;2023-03-15T05:00:54;99667.38;;;11.14;41.83
13013;BME280;22580;57.670;12.006;2023-03-15T05:03:23;99776.84;;;11.56;41.67
13013;BME280;22580;57.670;12.006;2023-03-15T05:05:50;99690.31;;;11.07;42.12
13013;BME280;22580;57.670;12.006;2023-03-15T05:08:17;99760.22;;;11.53;41.87
13013;BME280;22580;57.670;12.006;2023-03-15T05:10:44;99789.81;;;12.19;41.17
13013;BME280;22580;57.670;12.006;2023-03-15T05:13:11;99786.56;;;12.34;41.12
13013;BME280;22580;57.670;12.006;2023-03-15T05:15:38;99697.81;;;11.91;40.35
13013;BME280;22580;57.670;12.006;2023-03-15T05:18:05;99783.25;;;12.60;40.52
13013;BME280;22580;57.670;12.006;2023-03-15T05:20:34;99801.38;;;12.19;41.00
13013;BME280;22580;57.670;12.006;2023-03-15T05:23:01;99805.75;;;12.30;40.79
13013;BME280;22580;57.670;12.006;2023-03-15T05:25:28;99810.53;;;12.26;41.14
13013;BME280;22580;57.670;12.006;2023-03-15T05:27:55;99808.84;;;12.25;41.47
13013;BME280;22580;57.670;12.006;2023-03-15T05:30:22;99802.22;;;12.20;41.42
13013;BME280;22580;57.670;12.006;2023-03-15T05:32:49;99818.56;;;12.36;41.34
13013;BME280;22580;57.670;12.006;2023-03-15T05:35:16;99814.47;;;12.41;40.96
13013;BME280;22580;57.670;12.006;2023-03-15T05:37:44;99713.16;;;12.08;41.10
13013;BME280;22580;57.670;12.006;2023-03-15T05:40:12;99799.38;;;12.50;41.00
13013;BME280;22580;57.670;12.006;2023-03-15T05:42:39;99819.13;;;12.49;41.12
13013;BME280;22580;57.670;12.006;2023-03-15T05:45:07;99827.03;;;12.31;42.44
13013;BME280;22580;57.670;12.006;2023-03-15T05:47:34;99835.34;;;12.47;42.44
13013;BME280;22580;57.670;12.006;2023-03-15T05:50:02;99830.84;;;12.38;42.61
13013;BME280;22580;57.670;12.006;2023-03-15T05:52:29;99835.63;;;12.44;42.58
13013;BME280;22580;57.670;12.006;2023-03-15T05:54:58;99755.03;;;11.99;42.72
13013;BME280;22580;57.670;12.006;2023-03-15T05:57:25;99845.09;;;12.48;42.99
13013;BME280;22580;57.670;12.006;2023-03-15T05:59:52;99800.25;;;12.31;42.63
13013;BME280;22580;57.670;12.006;2023-03-15T06:02:19;99850.28;;;12.60;42.36
13013;BME280;22580;57.670;12.006;2023-03-15T06:04:46;99856.47;;;12.70;42.08
13013;BME280;22580;57.670;12.006;2023-03-15T06:07:13;99854.34;;;12.73;42.05
13013;BME280;22580;57.670;12.006;2023-03-15T06:09:40;99868.31;;;12.77;42.12
13013;BME280;22580;57.670;12.006;2023-03-15T06:12:09;99870.72;;;12.80;41.79
13013;BME280;22580;57.670;12.006;2023-03-15T06:14:36;99829.44;;;12.25;42.39
13013;BME280;22580;57.670;12.006;2023-03-15T06:17:04;99853.84;;;11.93;43.20
13013;BME280;22580;57.670;12.006;2023-03-15T06:19:31;99878.94;;;12.59;42.32
13013;BME280;22580;57.670;12.006;2023-03-15T06:21:58;99896.09;;;12.95;41.96
13013;BME280;22580;57.670;12.006;2023-03-15T06:24:24;99803.50;;;12.15;41.78
13013;BME280;22580;57.670;12.006;2023-03-15T06:26:51;99893.91;;;13.08;41.36
13013;BME280;22580;57.670;12.006;2023-03-15T06:29:20;99787.84;;;12.87;40.51
13013;BME280;22580;57.670;12.006;2023-03-15T06:31:47;99888.34;;;13.39;40.54
13013;BME280;22580;57.670;12.006;2023-03-15T06:34:15;99897.38;;;12.91;40.97
13013;BME280;22580;57.670;12.006;2023-03-15T06:36:43;99899.41;;;13.26;40.93
13013;BME280;22580;57.670;12.006;2023-03-15T06:39:11;99912.91;;;12.78;41.34
13013;BME280;22580;57.670;12.006;2023-03-15T06:41:39;99850.44;;;11.81;42.45
13013;BME280;22580;57.670;12.006;2023-03-15T06:44:06;99918.72;;;12.35;42.44
13013;BME280;22580;57.670;12.006;2023-03-15T06:46:35;99874.56;;;12.39;41.49
13013;BME280;22580;57.670;12.006;2023-03-15T06:49:02;99912.75;;;12.89;41.41
13013;BME280;22580;57.670;12.006;2023-03-15T06:51:30;99935.56;;;13.03;41.19
13013;BME280;22580;57.670;12.006;2023-03-15T06:53:57;99944.31;;;13.14;40.47
13013;BME280;22580;57.670;12.006;2023-03-15T06:56:24;99951.66;;;13.12;41.06
13013;BME280;22580;57.670;12.006;2023-03-15T06:58:51;99961.13;;;13.26;40.81
13013;BME280;22580;57.670;12.006;2023-03-15T07:01:18;99904.22;;;13.03;40.46
13013;BME280;22580;57.670;12.006;2023-03-15T07:03:46;99952.31;;;12.68;42.03
13013;BME280;22580;57.670;12.006;2023-03-15T07:06:13;99919.72;;;13.29;40.96
13013;BME280;22580;57.670;12.006;2023-03-15T07:08:40;99944.59;;;13.68;40.79
13013;BME280;22580;57.670;12.006;2023-03-15T07:11:07;99965.94;;;13.03;41.38
13013;BME280;22580;57.670;12.006;2023-03-15T07:13:34;99956.19;;;13.02;41.36
13013;BME280;22580;57.670;12.006;2023-03-15T07:16:01;99937.09;;;13.34;40.43
13013;BME280;22580;57.670;12.006;2023-03-15T07:18:28;99977.84;;;12.53;41.63
13013;BME280;22580;57.670;12.006;2023-03-15T07:21:00;99948.50;;;12.70;41.21
13013;BME280;22580;57.670;12.006;2023-03-15T07:23:27;99993.47;;;13.05;42.98
13013;BME280;22580;57.670;12.006;2023-03-15T07:25:55;99940.63;;;13.35;43.32
13013;BME280;22580;57.670;12.006;2023-03-15T07:28:23;99993.72;;;14.05;40.97
13013;BME280;22580;57.670;12.006;2023-03-15T07:30:54;99931.16;;;14.13;40.86
13013;BME280;22580;57.670;12.006;2023-03-15T07:33:23;100003.13;;;14.47;40.38
13013;BME280;22580;57.670;12.006;2023-03-15T07:35:51;100015.41;;;13.67;41.36
13013;BME280;22580;57.670;12.006;2023-03-15T07:38:20;100017.47;;;14.10;40.63
13013;BME280;22580;57.670;12.006;2023-03-15T07:40:47;100010.84;;;14.59;41.44
13013;BME280;22580;57.670;12.006;2023-03-15T07:43:14;100022.50;;;15.03;40.72
13013;BME280;22580;57.670;12.006;2023-03-15T07:45:41;100027.66;;;14.97;39.55
13013;BME280;22580;57.670;12.006;2023-03-15T07:48:08;100011.22;;;14.47;41.34
13013;BME280;22580;57.670;12.006;2023-03-15T07:50:36;99970.59;;;14.22;41.11
13013;BME280;22580;57.670;12.006;2023-03-15T07:53:03;100040.41;;;14.77;41.03
13013;BME280;22580;57.670;12.006;2023-03-15T07:55:32;100041.50;;;14.11;42.18
13013;BME280;22580;57.670;12.006;2023-03-15T07:57:59;100050.63;;;13.91;43.35
13013;BME280;22580;57.670;12.006;2023-03-15T08:00:27;100015.38;;;14.04;42.48
13013;BME280;22580;57.670;12.006;2023-03-15T08:02:54;100039.66;;;13.38;44.05
13013;BME280;22580;57.670;12.006;2023-03-15T08:05:21;100037.66;;;13.40;44.26
13013;BME280;22580;57.670;12.006;2023-03-15T08:07:49;100051.78;;;13.42;44.44
13013;BME280;22580;57.670;12.006;2023-03-15T08:10:16;100031.25;;;13.60;43.71
13013;BME280;22580;57.670;12.006;2023-03-15T08:12:45;100073.81;;;13.45;44.82
13013;BME280;22580;57.670;12.006;2023-03-15T08:15:14;99903.63;;;12.43;44.50
13013;BME280;22580;57.670;12.006;2023-03-15T08:17:41;100031.97;;;13.62;44.11
13013;BME280;22580;57.670;12.006;2023-03-15T08:20:09;100064.22;;;13.33;45.10
13013;BME280;22580;57.670;12.006;2023-03-15T08:22:39;100079.75;;;13.01;45.30
13013;BME280;22580;57.670;12.006;2023-03-15T08:25:09;100089.63;;;13.58;44.55
13013;BME280;22580;57.670;12.006;2023-03-15T08:27:37;100068.53;;;14.10;43.40
13013;BME280;22580;57.670;12.006;2023-03-15T08:30:06;100088.06;;;14.02;43.43
13013;BME280;22580;57.670;12.006;2023-03-15T08:32:33;100053.09;;;14.39;42.69
13013;BME280;22580;57.670;12.006;2023-03-15T08:35:00;100090.00;;;14.92;41.75
13013;BME280;22580;57.670;12.006;2023-03-15T08:37:27;100097.69;;;13.68;42.96
13013;BME280;22580;57.670;12.006;2023-03-15T08:39:54;100089.88;;;14.11;42.37
13013;BME280;22580;57.670;12.006;2023-03-15T08:42:26;100090.03;;;14.47;41.92
13013;BME280;22580;57.670;12.006;2023-03-15T08:44:53;100097.38;;;14.90;41.10
13013;BME280;22580;57.670;12.006;2023-03-15T08:47:25;100102.31;;;14.95;40.61
13013;BME280;22580;57.670;12.006;2023-03-15T08:49:52;100113.69;;;15.06;40.09
13013;BME280;22580;57.670;12.006;2023-03-15T08:52:19;100119.06;;;14.89;40.22
13013;BME280;22580;57.670;12.006;2023-03-15T08:54:46;100118.06;;;13.98;42.29
13013;BME280;22580;57.670;12.006;2023-03-15T08:57:14;100134.44;;;13.48;42.96
13013;BME280;22580;57.670;12.006;2023-03-15T08:59:41;100150.44;;;14.06;42.50
13013;BME280;22580;57.670;12.006;2023-03-15T09:02:08;100124.81;;;13.74;42.53
13013;BME280;22580;57.670;12.006;2023-03-15T09:04:38;100122.28;;;13.44;42.64
13013;BME280;22580;57.670;12.006;2023-03-15T09:07:05;100151.56;;;14.03;41.89
13013;BME280;22580;57.670;12.006;2023-03-15T09:09:32;100152.53;;;14.59;41.08
13013;BME280;22580;57.670;12.006;2023-03-15T09:11:59;100146.47;;;14.74;41.39
13013;BME280;22580;57.670;12.006;2023-03-15T09:14:26;100162.34;;;14.50;41.27
13013;BME280;22580;57.670;12.006;2023-03-15T09:16:53;100161.94;;;14.45;42.07
13013;BME280;22580;57.670;12.006;2023-03-15T09:19:20;100179.41;;;14.12;42.57
13013;BME280;22580;57.670;12.006;2023-03-15T09:21:49;100187.53;;;13.93;43.14
13013;BME280;22580;57.670;12.006;2023-03-15T09:24:16;100174.28;;;13.53;43.53
13013;BME280;22580;57.670;12.006;2023-03-15T09:26:42;100186.72;;;13.83;43.54
13013;BME280;22580;57.670;12.006;2023-03-15T09:29:10;100163.78;;;14.45;42.37
13013;BME280;22580;57.670;12.006;2023-03-15T09:31:37;100192.28;;;14.65;41.05
13013;BME280;22580;57.670;12.006;2023-03-15T09:34:04;100194.06;;;15.01;40.17
13013;BME280;22580;57.670;12.006;2023-03-15T09:36:32;100207.50;;;14.47;40.60
13013;BME280;22580;57.670;12.006;2023-03-15T09:39:01;100177.41;;;15.16;40.19
13013;BME280;22580;57.670;12.006;2023-03-15T09:41:42;100204.94;;;15.27;40.17
13013;BME280;22580;57.670;12.006;2023-03-15T09:44:22;100176.00;;;15.12;39.49
13013;BME280;22580;57.670;12.006;2023-03-15T09:47:04;100215.56;;;14.37;40.40
13013;BME280;22580;57.670;12.006;2023-03-15T09:49:40;100240.41;;;13.92;40.58
13013;BME280;22580;57.670;12.006;2023-03-15T09:52:24;100222.22;;;14.80;40.22
13013;BME280;22580;57.670;12.006;2023-03-15T09:54:57;100228.25;;;14.64;40.82
13013;BME280;22580;57.670;12.006;2023-03-15T09:57:34;100210.50;;;15.26;39.77
13013;BME280;22580;57.670;12.006;2023-03-15T10:00:04;100198.50;;;14.93;38.34
13013;BME280;22580;57.670;12.006;2023-03-15T10:02:41;100228.22;;;14.17;40.15
13013;BME280;22580;57.670;12.006;2023-03-15T10:05:12;100232.38;;;14.58;39.87
13013;BME280;22580;57.670;12.006;2023-03-15T10:07:41;100208.09;;;14.31;40.27
13013;BME280;22580;57.670;12.006;2023-03-15T10:10:17;100245.16;;;14.37;41.50
13013;BME280;22580;57.670;12.006;2023-03-15T10:12:50;100241.19;;;14.41;41.24
13013;BME280;22580;57.670;12.006;2023-03-15T10:15:28;100208.81;;;14.97;39.35
13013;BME280;22580;57.670;12.006;2023-03-15T10:18:13;100252.63;;;14.90;38.87
13013;BME280;22580;57.670;12.006;2023-03-15T10:20:47;100183.63;;;14.71;40.15
13013;BME280;22580;57.670;12.006;2023-03-15T10:23:21;100247.88;;;14.74;40.26
13013;BME280;22580;57.670;12.006;2023-03-15T10:25:53;100266.72;;;15.01;40.30
13013;BME280;22580;57.670;12.006;2023-03-15T10:28:23;100268.06;;;14.51;39.85
13013;BME280;22580;57.670;12.006;2023-03-15T10:30:51;100243.81;;;14.70;39.89
13013;BME280;22580;57.670;12.006;2023-03-15T10:33:25;100281.94;;;14.56;40.46
13013;BME280;22580;57.670;12.006;2023-03-15T10:35:53;100247.34;;;13.95;41.91
13013;BME280;22580;57.670;12.006;2023-03-15T10:38:22;100272.66;;;15.05;40.72
13013;BME280;22580;57.670;12.006;2023-03-15T10:40:52;100278.09;;;15.86;39.69
13013;BME280;22580;57.670;12.006;2023-03-15T10:43:21;100278.13;;;14.86;41.76
13013;BME280;22580;57.670;12.006;2023-03-15T10:45:59;100301.06;;;14.53;41.71
13013;BME280;22580;57.670;12.006;2023-03-15T10:48:28;100300.50;;;14.86;42.00
13013;BME280;22580;57.670;12.006;2023-03-15T10:50:56;100279.91;;;15.59;40.53
13013;BME280;22580;57.670;12.006;2023-03-15T10:53:23;100321.88;;;14.88;40.96
13013;BME280;22580;57.670;12.006;2023-03-15T10:55:59;100287.16;;;14.94;40.47
13013;BME280;22580;57.670;12.006;2023-03-15T10:58:29;100334.16;;;15.37;40.34
13013;BME280;22580;57.670;12.006;2023-03-15T11:01:05;100302.59;;;14.92;40.02
13013;BME280;22580;57.670;12.006;2023-03-15T11:03:35;100299.22;;;14.24;41.22
13013;BME280;22580;57.670;12.006;2023-03-15T11:06:19;100313.13;;;14.76;39.49
13013;BME280;22580;57.670;12.006;2023-03-15T11:08:47;100284.13;;;15.07;39.24
13013;BME280;22580;57.670;12.006;2023-03-15T11:11:15;100299.66;;;14.86;38.95
13013;BME280;22580;57.670;12.006;2023-03-15T11:13:54;100329.97;;;14.88;39.40
13013;BME280;22580;57.670;12.006;2023-03-15T11:16:24;100347.31;;;14.37;40.74
13013;BME280;22580;57.670;12.006;2023-03-15T11:18:54;100342.81;;;14.57;39.69
13013;BME280;22580;57.670;12.006;2023-03-15T11:21:27;100347.41;;;14.74;39.66
13013;BME280;22580;57.670;12.006;2023-03-15T11:23:59;100291.38;;;15.34;38.38
13013;BME280;22580;57.670;12.006;2023-03-15T11:26:34;100338.53;;;15.65;38.25
13013;BME280;22580;57.670;12.006;2023-03-15T11:29:04;100362.19;;;15.89;38.17
13013;BME280;22580;57.670;12.006;2023-03-15T11:31:34;100357.38;;;14.25;39.16
13013;BME280;22580;57.670;12.006;2023-03-15T11:34:05;100380.56;;;13.97;39.58
13013;BME280;22580;57.670;12.006;2023-03-15T11:36:36;100326.38;;;14.02;39.39
13013;BME280;22580;57.670;12.006;2023-03-15T11:39:07;100360.31;;;15.17;38.85
13013;BME280;22580;57.670;12.006;2023-03-15T11:41:43;100368.66;;;15.79;38.70
13013;BME280;22580;57.670;12.006;2023-03-15T11:44:19;100361.22;;;16.08;37.71
13013;BME280;22580;57.670;12.006;2023-03-15T11:46:54;100282.41;;;14.79;37.64
13013;BME280;22580;57.670;12.006;2023-03-15T11:49:30;100360.28;;;15.54;37.56
13013;BME280;22580;57.670;12.006;2023-03-15T11:51:58;100375.59;;;15.26;38.35
13013;BME280;22580;57.670;12.006;2023-03-15T11:54:28;100381.97;;;14.79;38.88
13013;BME280;22580;57.670;12.006;2023-03-15T11:57:01;100401.22;;;14.74;39.23
13013;BME280;22580;57.670;12.006;2023-03-15T11:59:32;100392.41;;;15.65;36.93
13013;BME280;22580;57.670;12.006;2023-03-15T12:02:34;100404.44;;;16.16;36.92
13013;BME280;22580;57.670;12.006;2023-03-15T12:05:04;100433.59;;;15.58;36.77
13013;BME280;22580;57.670;12.006;2023-03-15T12:07:37;100420.81;;;14.57;38.05
13013;BME280;22580;57.670;12.006;2023-03-15T12:10:42;100419.69;;;15.53;36.70
13013;BME280;22580;57.670;12.006;2023-03-15T12:13:27;100390.41;;;15.40;36.67
13013;BME280;22580;57.670;12.006;2023-03-15T12:15:55;100390.41;;;15.95;36.78
13013;BME280;22580;57.670;12.006;2023-03-15T12:18:32;100412.06;;;16.21;36.32
13013;BME280;22580;57.670;12.006;2023-03-15T12:21:07;100408.66;;;17.16;35.08
13013;BME280;22580;57.670;12.006;2023-03-15T12:23:41;100420.44;;;16.89;35.52
13013;BME280;22580;57.670;12.006;2023-03-15T12:26:23;100414.38;;;16.69;35.35
13013;BME280;22580;57.670;12.006;2023-03-15T12:29:04;100431.84;;;15.66;36.64
13013;BME280;22580;57.670;12.006;2023-03-15T12:31:57;100420.91;;;15.95;36.01
13013;BME280;22580;57.670;12.006;2023-03-15T12:34:34;100422.06;;;16.64;36.28
13013;BME280;22580;57.670;12.006;2023-03-15T12:37:05;100414.97;;;15.64;36.04
13013;BME280;22580;57.670;12.006;2023-03-15T12:39:39;100421.44;;;15.99;35.33
13013;BME280;22580;57.670;12.006;2023-03-15T12:48:24;100430.25;;;16.72;35.59
13013;BME280;22580;57.670;12.006;2023-03-15T12:50:59;100450.47;;;17.12;34.33
13013;BME280;22580;57.670;12.006;2023-03-15T12:53:46;100455.94;;;16.76;36.00
13013;BME280;22580;57.670;12.006;2023-03-15T12:56:42;100446.50;;;17.24;35.88
13013;BME280;22580;57.670;12.006;2023-03-15T12:59:42;100449.88;;;17.86;34.60
13013;BME280;22580;57.670;12.006;2023-03-15T13:02:24;100456.31;;;17.85;34.14
13013;BME280;22580;57.670;12.006;2023-03-15T13:05:29;100456.00;;;17.28;34.55